createdAt,value
2018-06-24T00:00:55.594Z,13.50
2018-06-24T00:01:55.521Z,9.90
2018-06-24T00:02:55.506Z,12.60
2018-06-24T00:03:55.478Z,11.30
2018-06-24T00:04:55.406Z,14.00
2018-06-24T00:05:55.378Z,12.00
2018-06-24T00:06:55.339Z,14.60
2018-06-24T00:07:55.311Z,13.30
2018-06-24T00:08:55.401Z,13.60
2018-06-24T00:09:55.234Z,11.10
2018-06-24T00:10:55.195Z,13.70
2018-06-24T00:11:55.170Z,13.50
2018-06-24T00:12:55.118Z,14.50
2018-06-24T00:13:55.121Z,14.00
2018-06-24T00:14:55.053Z,10.80
2018-06-24T00:15:55.039Z,11.50
2018-06-24T00:16:54.989Z,14.40
2018-06-24T00:17:54.940Z,11.00
2018-06-24T00:18:54.922Z,12.50
2018-06-24T00:19:54.859Z,14.00
2018-06-24T00:20:54.858Z,10.60
2018-06-24T00:21:54.839Z,11.90
2018-06-24T00:22:54.832Z,13.00
2018-06-24T00:23:55.531Z,11.10
2018-06-24T00:24:54.668Z,13.00
2018-06-24T00:25:54.631Z,12.70
2018-06-24T00:26:54.609Z,16.20
2018-06-24T00:27:54.621Z,14.00
2018-06-24T00:28:54.537Z,12.10
2018-06-24T00:29:54.493Z,12.90
2018-06-24T00:30:54.485Z,11.90
2018-06-24T00:31:54.438Z,13.10
2018-06-24T00:32:54.438Z,15.80
2018-06-24T00:33:54.488Z,16.10
2018-06-24T00:34:54.323Z,16.60
2018-06-24T00:35:54.350Z,13.70
2018-06-24T00:36:54.270Z,14.60
2018-06-24T00:37:54.190Z,17.20
2018-06-24T00:38:54.176Z,14.10
2018-06-24T00:39:54.169Z,9.10
2018-06-24T00:40:54.097Z,12.00
2018-06-24T00:41:54.041Z,11.70
2018-06-24T00:42:54.141Z,11.60
2018-06-24T00:43:54.026Z,12.90
2018-06-24T00:44:54.071Z,13.70
2018-06-24T00:45:53.984Z,14.20
2018-06-24T00:46:53.924Z,14.10
2018-06-24T00:47:53.877Z,11.70
2018-06-24T00:48:53.770Z,13.10
2018-06-24T00:49:53.740Z,13.40
2018-06-24T00:50:53.702Z,10.40
2018-06-24T00:51:53.698Z,11.50
2018-06-24T00:52:53.629Z,15.00
2018-06-24T00:53:53.604Z,12.10
2018-06-24T00:54:53.560Z,12.40
2018-06-24T00:55:53.530Z,13.20
2018-06-24T00:56:53.477Z,12.70
2018-06-24T00:57:53.463Z,10.50
2018-06-24T00:58:53.423Z,14.40
2018-06-24T00:59:53.381Z,15.40
2018-06-24T01:00:53.351Z,10.80
2018-06-24T01:01:53.302Z,12.20
2018-06-24T01:02:53.261Z,12.00
2018-06-24T01:03:53.224Z,11.80
2018-06-24T01:04:53.204Z,15.10
2018-06-24T01:05:53.152Z,11.80
2018-06-24T01:06:53.131Z,10.60
2018-06-24T01:07:53.089Z,11.40
2018-06-24T01:08:53.046Z,11.70
2018-06-24T01:09:53.013Z,14.10
2018-06-24T01:10:52.981Z,11.80
2018-06-24T01:11:52.925Z,14.90
2018-06-24T01:12:52.878Z,10.90
2018-06-24T01:13:52.866Z,12.00
2018-06-24T01:14:52.808Z,10.10
2018-06-24T01:15:52.768Z,15.00
2018-06-24T01:16:52.758Z,14.30
2018-06-24T01:17:52.735Z,9.30
2018-06-24T01:18:52.733Z,10.80
2018-06-24T01:19:52.724Z,11.40
2018-06-24T01:20:52.625Z,13.20
2018-06-24T01:21:52.549Z,13.50
2018-06-24T01:22:52.537Z,11.40
2018-06-24T01:23:52.509Z,11.50
2018-06-24T01:24:52.443Z,11.20
2018-06-24T01:25:52.450Z,12.60
2018-06-24T01:26:52.370Z,10.20
2018-06-24T01:27:52.328Z,11.10
2018-06-24T01:28:52.312Z,11.60
2018-06-24T01:29:52.257Z,14.90
2018-06-24T01:30:52.246Z,14.00
2018-06-24T01:31:52.207Z,10.80
2018-06-24T01:32:52.138Z,12.90
2018-06-24T01:33:52.121Z,9.50
2018-06-24T01:34:52.066Z,12.60
2018-06-24T01:35:52.072Z,10.20
2018-06-24T01:36:51.983Z,12.30
2018-06-24T01:37:51.967Z,13.40
2018-06-24T01:38:51.927Z,13.80
2018-06-24T01:39:51.880Z,13.00
2018-06-24T01:40:51.882Z,9.50
2018-06-24T01:41:51.827Z,10.40
2018-06-24T01:42:51.765Z,11.30
2018-06-24T01:43:51.736Z,13.30
2018-06-24T01:44:51.687Z,14.00
2018-06-24T01:45:51.656Z,13.60
2018-06-24T01:46:51.623Z,12.70
2018-06-24T01:47:51.614Z,8.70
2018-06-24T01:48:51.558Z,10.10
2018-06-24T01:49:51.535Z,9.80
2018-06-24T01:50:51.492Z,9.70
2018-06-24T01:51:51.432Z,9.70
2018-06-24T01:52:51.450Z,12.40
2018-06-24T01:53:51.359Z,11.40
2018-06-24T01:54:51.359Z,16.30
2018-06-24T01:55:51.278Z,12.10
2018-06-24T01:56:51.272Z,10.40
2018-06-24T01:57:51.207Z,12.10
2018-06-24T01:58:51.189Z,10.60
2018-06-24T01:59:51.262Z,11.30
2018-06-24T02:00:51.107Z,12.30
2018-06-24T02:01:51.072Z,12.40
2018-06-24T02:02:51.040Z,12.60
2018-06-24T02:03:51.056Z,10.60
2018-06-24T02:04:50.950Z,11.10
2018-06-24T02:05:50.979Z,13.70
2018-06-24T02:06:50.872Z,10.20
2018-06-24T02:07:50.869Z,12.10
2018-06-24T02:08:50.820Z,10.20
2018-06-24T02:09:50.795Z,12.60
2018-06-24T02:10:50.733Z,10.40
2018-06-24T02:11:50.716Z,9.40
2018-06-24T02:12:50.646Z,12.80
2018-06-24T02:13:50.619Z,9.00
2018-06-24T02:14:50.580Z,11.00
2018-06-24T02:15:50.595Z,9.70
2018-06-24T02:16:50.499Z,10.70
2018-06-24T02:17:50.470Z,9.50
2018-06-24T02:18:50.421Z,11.30
2018-06-24T02:19:50.386Z,11.60
2018-06-24T02:20:50.455Z,10.90
2018-06-24T02:21:50.372Z,10.50
2018-06-24T02:22:50.296Z,11.00
2018-06-24T02:23:50.235Z,13.70
2018-06-24T02:24:50.219Z,10.50
2018-06-24T02:25:50.175Z,9.80
2018-06-24T02:26:50.129Z,10.40
2018-06-24T02:27:50.108Z,8.80
2018-06-24T02:28:50.056Z,9.90
2018-06-24T02:29:50.009Z,9.80
2018-06-24T02:30:49.982Z,9.50
2018-06-24T02:31:49.947Z,10.40
2018-06-24T02:32:49.956Z,9.90
2018-06-24T02:33:49.867Z,12.20
2018-06-24T02:34:49.848Z,11.90
2018-06-24T02:35:49.800Z,9.60
2018-06-24T02:36:49.766Z,11.90
2018-06-24T02:37:49.709Z,11.60
2018-06-24T02:38:49.699Z,10.50
2018-06-24T02:39:49.634Z,10.40
2018-06-24T02:40:49.612Z,11.80
2018-06-24T02:41:49.577Z,11.10
2018-06-24T02:42:49.548Z,12.10
2018-06-24T02:43:49.503Z,10.00
2018-06-24T02:44:49.456Z,12.90
2018-06-24T02:45:49.414Z,9.10
2018-06-24T02:46:49.394Z,10.80
2018-06-24T02:47:49.362Z,9.70
2018-06-24T02:48:49.327Z,10.30
2018-06-24T02:49:49.265Z,11.90
2018-06-24T02:50:49.257Z,12.90
2018-06-24T02:51:49.194Z,10.10
2018-06-24T02:52:49.153Z,10.90
2018-06-24T02:53:49.138Z,9.10
2018-06-24T02:54:49.084Z,8.30
2018-06-24T02:55:49.061Z,13.20
2018-06-24T02:56:49.021Z,11.40
2018-06-24T02:57:49.015Z,9.20
2018-06-24T02:58:48.947Z,10.80
2018-06-24T02:59:48.905Z,10.90
2018-06-24T03:00:48.853Z,9.80
2018-06-24T03:01:48.935Z,9.10
2018-06-24T03:02:48.828Z,10.70
2018-06-24T03:03:48.755Z,9.20
2018-06-24T03:04:48.705Z,9.70
2018-06-24T03:05:48.693Z,11.10
2018-06-24T03:06:48.625Z,12.10
2018-06-24T03:07:48.612Z,9.60
2018-06-24T03:08:48.596Z,8.80
2018-06-24T03:09:48.526Z,7.10
2018-06-24T03:10:48.539Z,9.10
2018-06-24T03:11:48.467Z,9.20
2018-06-24T03:12:48.406Z,9.60
2018-06-24T03:13:48.469Z,11.70
2018-06-24T03:14:48.338Z,8.90
2018-06-24T03:15:48.307Z,9.00
2018-06-24T03:16:48.254Z,8.60
2018-06-24T03:17:48.221Z,10.60
2018-06-24T03:18:48.188Z,8.80
2018-06-24T03:19:48.153Z,9.30
2018-06-24T03:20:48.107Z,8.50
2018-06-24T03:21:48.073Z,11.00
2018-06-24T03:22:48.028Z,12.00
2018-06-24T03:23:47.997Z,8.00
2018-06-24T03:24:47.959Z,10.10
2018-06-24T03:25:47.942Z,9.10
2018-06-24T03:26:47.882Z,12.80
2018-06-24T03:27:47.875Z,9.30
2018-06-24T03:28:47.799Z,6.70
2018-06-24T03:29:47.797Z,9.20
2018-06-24T03:30:47.761Z,10.40
2018-06-24T03:31:47.718Z,10.00
2018-06-24T03:32:47.680Z,7.80
2018-06-24T03:33:47.614Z,8.00
2018-06-24T03:34:47.606Z,10.60
2018-06-24T03:35:47.576Z,9.60
2018-06-24T03:36:47.526Z,10.60
2018-06-24T03:37:47.473Z,10.20
2018-06-24T03:38:47.462Z,9.60
2018-06-24T03:39:47.409Z,9.30
2018-06-24T03:40:47.453Z,8.70
2018-06-24T03:41:47.322Z,8.00
2018-06-24T03:42:47.285Z,8.00
2018-06-24T03:43:47.276Z,11.80
2018-06-24T03:44:47.219Z,9.50
2018-06-24T03:45:47.223Z,9.90
2018-06-24T03:46:47.134Z,9.00
2018-06-24T03:47:47.105Z,9.50
2018-06-24T03:48:47.063Z,12.70
2018-06-24T03:49:47.028Z,7.40
2018-06-24T03:50:47.015Z,10.40
2018-06-24T03:51:46.955Z,8.50
2018-06-24T03:52:46.919Z,10.90
2018-06-24T03:53:46.864Z,9.00
2018-06-24T03:54:46.844Z,9.90
2018-06-24T03:55:46.791Z,8.80
2018-06-24T03:56:46.755Z,9.50
2018-06-24T03:57:46.720Z,7.50
2018-06-24T03:58:46.677Z,9.00
2018-06-24T03:59:46.657Z,8.50
2018-06-24T04:00:46.653Z,9.10
2018-06-24T04:01:46.610Z,8.70
2018-06-24T04:02:46.587Z,7.70
2018-06-24T04:03:46.536Z,7.70
2018-06-24T04:04:46.658Z,8.20
2018-06-24T04:05:46.421Z,10.00
2018-06-24T04:06:46.421Z,8.40
2018-06-24T04:07:46.359Z,6.60
2018-06-24T04:08:46.311Z,9.80
2018-06-24T04:09:47.089Z,7.80
2018-06-24T04:10:46.234Z,7.90
2018-06-24T04:11:46.224Z,8.40
2018-06-24T04:12:46.152Z,7.10
2018-06-24T04:13:46.190Z,7.20
2018-06-24T04:14:46.118Z,6.80
2018-06-24T04:15:46.056Z,8.50
2018-06-24T04:16:46.603Z,8.90
2018-06-24T04:17:45.980Z,7.60
2018-06-24T04:18:45.981Z,7.10
2018-06-24T04:19:45.913Z,7.40
2018-06-24T04:20:45.906Z,6.60
2018-06-24T04:21:45.838Z,9.40
2018-06-24T04:22:45.800Z,8.00
2018-06-24T04:23:45.747Z,9.10
2018-06-24T04:24:45.726Z,10.50
2018-06-24T04:25:45.686Z,7.40
2018-06-24T04:26:45.652Z,8.30
2018-06-24T04:27:45.626Z,7.20
2018-06-24T04:28:45.619Z,7.20
2018-06-24T04:29:45.654Z,8.20
2018-06-24T04:30:45.509Z,6.20
2018-06-24T04:31:45.508Z,8.70
2018-06-24T04:32:45.448Z,8.20
2018-06-24T04:33:45.409Z,6.90
2018-06-24T04:34:45.423Z,7.60
2018-06-24T04:35:45.324Z,8.30
2018-06-24T04:36:45.283Z,10.30
2018-06-24T04:37:45.229Z,7.50
2018-06-24T04:38:45.213Z,7.60
2018-06-24T04:39:45.265Z,6.60
2018-06-24T04:40:45.148Z,6.80
2018-06-24T04:41:45.152Z,8.30
2018-06-24T04:42:45.115Z,8.60
2018-06-24T04:43:45.038Z,9.00
2018-06-24T04:44:45.008Z,6.90
2018-06-24T04:45:44.944Z,8.30
2018-06-24T04:46:44.921Z,7.20
2018-06-24T04:47:44.918Z,7.90
2018-06-24T04:48:44.875Z,7.00
2018-06-24T04:49:44.801Z,7.40
2018-06-24T04:50:44.833Z,5.00
2018-06-24T04:51:44.835Z,6.40
2018-06-24T04:52:44.706Z,9.00
2018-06-24T04:53:44.768Z,7.30
2018-06-24T04:54:44.622Z,8.50
2018-06-24T04:55:44.580Z,7.30
2018-06-24T04:56:44.627Z,6.30
2018-06-24T04:57:44.558Z,8.60
2018-06-24T04:58:44.472Z,5.40
2018-06-24T04:59:44.452Z,6.50
2018-06-24T05:00:44.441Z,6.60
2018-06-24T05:01:44.394Z,6.10
2018-06-24T05:02:44.386Z,9.50
2018-06-24T05:03:44.310Z,6.20
2018-06-24T05:04:44.264Z,5.60
2018-06-24T05:05:44.384Z,5.90
2018-06-24T05:06:44.198Z,6.30
2018-06-24T05:07:44.167Z,8.00
2018-06-24T05:08:44.113Z,7.10
2018-06-24T05:09:44.089Z,8.60
2018-06-24T05:10:44.066Z,7.00
2018-06-24T05:11:44.014Z,7.50
2018-06-24T05:12:43.999Z,7.60
2018-06-24T05:13:43.960Z,9.80
2018-06-24T05:14:43.928Z,7.60
2018-06-24T05:15:43.904Z,6.30
2018-06-24T05:16:43.870Z,7.30
2018-06-24T05:17:43.845Z,5.50
2018-06-24T05:18:43.776Z,5.70
2018-06-24T05:19:43.770Z,6.40
2018-06-24T05:20:43.694Z,7.10
2018-06-24T05:21:43.684Z,6.50
2018-06-24T05:22:43.648Z,6.70
2018-06-24T05:23:43.640Z,6.70
2018-06-24T05:24:43.561Z,7.00
2018-06-24T05:25:43.531Z,6.60
2018-06-24T05:26:43.488Z,5.10
2018-06-24T05:27:43.486Z,6.20
2018-06-24T05:28:43.424Z,7.70
2018-06-24T05:29:43.413Z,7.00
2018-06-24T05:30:43.358Z,6.80
2018-06-24T05:31:43.326Z,7.10
2018-06-24T05:32:43.320Z,6.20
2018-06-24T05:33:43.240Z,6.30
2018-06-24T05:34:43.247Z,5.60
2018-06-24T05:35:43.252Z,6.80
2018-06-24T05:36:43.171Z,8.00
2018-06-24T05:37:43.189Z,6.20
2018-06-24T05:38:43.111Z,7.20
2018-06-24T05:39:43.063Z,6.80
2018-06-24T05:40:43.031Z,6.10
2018-06-24T05:41:42.990Z,6.30
2018-06-24T05:42:42.983Z,7.00
2018-06-24T05:43:42.915Z,7.40
2018-06-24T05:44:42.919Z,5.70
2018-06-24T05:45:42.850Z,7.60
2018-06-24T05:46:42.801Z,6.30
2018-06-24T05:47:42.798Z,7.00
2018-06-24T05:48:42.748Z,7.90
2018-06-24T05:49:42.794Z,6.60
2018-06-24T05:50:42.653Z,5.30
2018-06-24T05:51:42.616Z,7.00
2018-06-24T05:52:42.614Z,8.20
2018-06-24T05:53:42.624Z,6.60
2018-06-24T05:54:42.661Z,5.90
2018-06-24T05:55:42.502Z,5.20
2018-06-24T05:56:42.480Z,5.80
2018-06-24T05:57:42.488Z,6.10
2018-06-24T05:58:42.578Z,8.30
2018-06-24T05:59:42.352Z,7.40
2018-06-24T06:00:42.332Z,5.90
2018-06-24T06:01:42.289Z,7.20
2018-06-24T06:02:42.277Z,6.40
2018-06-24T06:03:42.216Z,6.30
2018-06-24T06:04:42.250Z,5.00
2018-06-24T06:05:42.142Z,8.60
2018-06-24T06:06:42.145Z,7.00
2018-06-24T06:07:42.093Z,6.20
2018-06-24T06:08:42.042Z,4.80
2018-06-24T06:09:41.999Z,5.10
2018-06-24T06:10:41.982Z,6.00
2018-06-24T06:11:41.955Z,7.40
2018-06-24T06:12:41.908Z,4.50
2018-06-24T06:13:41.886Z,6.60
2018-06-24T06:14:41.864Z,4.80
2018-06-24T06:15:41.805Z,6.60
2018-06-24T06:16:41.790Z,6.70
2018-06-24T06:17:41.754Z,5.50
2018-06-24T06:18:41.714Z,7.00
2018-06-24T06:19:41.719Z,7.30
2018-06-24T06:20:41.724Z,8.70
2018-06-24T06:21:41.668Z,8.20
2018-06-24T06:22:41.572Z,6.40
2018-06-24T06:23:41.555Z,7.20
2018-06-24T06:24:41.512Z,6.50
2018-06-24T06:25:41.461Z,7.70
2018-06-24T06:26:42.168Z,7.30
2018-06-24T06:27:41.416Z,7.50
2018-06-24T06:28:41.367Z,7.00
2018-06-24T06:29:41.368Z,6.00
2018-06-24T06:30:41.336Z,7.80
2018-06-24T06:31:41.281Z,6.60
2018-06-24T06:32:41.245Z,6.40
2018-06-24T06:33:41.219Z,6.60
2018-06-24T06:34:41.178Z,6.50
2018-06-24T06:35:41.255Z,5.50
2018-06-24T06:36:41.166Z,6.70
2018-06-24T06:37:41.103Z,6.20
2018-06-24T06:38:41.089Z,6.80
2018-06-24T06:39:41.024Z,7.90
2018-06-24T06:40:41.028Z,6.40
2018-06-24T06:41:40.948Z,6.70
2018-06-24T06:42:40.954Z,5.80
2018-06-24T06:43:40.882Z,6.90
2018-06-24T06:44:40.838Z,5.40
2018-06-24T06:45:41.038Z,7.10
2018-06-24T06:46:40.780Z,7.70
2018-06-24T06:47:40.766Z,5.00
2018-06-24T06:48:40.722Z,7.30
2018-06-24T06:49:40.691Z,7.90
2018-06-24T06:50:40.689Z,5.10
2018-06-24T06:51:40.611Z,7.00
2018-06-24T06:52:40.598Z,6.50
2018-06-24T06:53:40.551Z,6.40
2018-06-24T06:54:40.524Z,6.60
2018-06-24T06:55:40.488Z,5.00
2018-06-24T06:56:40.475Z,7.50
2018-06-24T06:57:40.509Z,4.00
2018-06-24T06:58:40.401Z,6.80
2018-06-24T06:59:40.376Z,5.30
2018-06-24T07:00:40.366Z,5.00
2018-06-24T07:01:40.296Z,6.10
2018-06-24T07:02:40.294Z,5.00
2018-06-24T07:03:40.253Z,4.40
2018-06-24T07:04:40.243Z,7.10
2018-06-24T07:05:40.282Z,5.00
2018-06-24T07:06:40.211Z,5.40
2018-06-24T07:07:40.106Z,5.70
2018-06-24T07:08:40.511Z,5.20
2018-06-24T07:09:40.090Z,4.40
2018-06-24T07:10:40.005Z,5.00
2018-06-24T07:11:39.972Z,6.10
2018-06-24T07:12:40.034Z,3.50
2018-06-24T07:13:39.906Z,3.60
2018-06-24T07:14:39.926Z,4.90
2018-06-24T07:15:39.875Z,3.80
2018-06-24T07:16:39.837Z,5.80
2018-06-24T07:17:39.828Z,4.70
2018-06-24T07:18:39.771Z,5.60
2018-06-24T07:19:39.796Z,6.00
2018-06-24T07:20:39.722Z,2.90
2018-06-24T07:21:39.648Z,4.90
2018-06-24T07:22:39.647Z,4.90
2018-06-24T07:23:39.594Z,4.20
2018-06-24T07:24:39.673Z,3.60
2018-06-24T07:25:39.615Z,5.40
2018-06-24T07:26:39.520Z,4.20
2018-06-24T07:27:39.503Z,4.40
2018-06-24T07:28:39.455Z,4.30
2018-06-24T07:29:39.446Z,4.50
2018-06-24T07:30:39.545Z,4.40
2018-06-24T07:31:39.428Z,3.60
2018-06-24T07:32:39.932Z,5.10
2018-06-24T07:33:39.536Z,4.10
2018-06-24T07:34:39.324Z,4.30
2018-06-24T07:35:39.244Z,4.50
2018-06-24T07:36:39.225Z,4.10
2018-06-24T07:37:39.280Z,5.10
2018-06-24T07:38:39.304Z,4.00
2018-06-24T07:39:39.204Z,2.90
2018-06-24T07:40:39.110Z,4.00
2018-06-24T07:41:39.089Z,4.80
2018-06-24T07:42:39.076Z,2.70
2018-06-24T07:43:39.003Z,4.20
2018-06-24T07:44:38.986Z,3.70
2018-06-24T07:45:38.984Z,4.00
2018-06-24T07:46:38.923Z,2.80
2018-06-24T07:47:38.914Z,4.00
2018-06-24T07:48:38.891Z,5.20
2018-06-24T07:49:38.847Z,4.40
2018-06-24T07:50:38.810Z,3.70
2018-06-24T07:51:38.789Z,4.80
2018-06-24T07:52:38.787Z,4.70
2018-06-24T07:53:38.759Z,3.80
2018-06-24T07:54:38.720Z,4.50
2018-06-24T07:55:38.675Z,3.60
2018-06-24T07:56:38.624Z,2.70
2018-06-24T07:57:38.600Z,4.00
2018-06-24T07:58:38.572Z,4.10
2018-06-24T07:59:38.542Z,4.70
2018-06-24T08:00:38.517Z,3.60
2018-06-24T08:01:38.485Z,4.40
2018-06-24T08:02:38.450Z,5.80
2018-06-24T08:03:38.442Z,2.80
2018-06-24T08:04:38.402Z,4.50
2018-06-24T08:05:38.386Z,3.00
2018-06-24T08:06:38.328Z,4.10
2018-06-24T08:07:38.309Z,4.20
2018-06-24T08:08:38.280Z,3.70
2018-06-24T08:09:38.270Z,5.20
2018-06-24T08:10:38.266Z,5.10
2018-06-24T08:11:38.221Z,3.70
2018-06-24T08:12:38.170Z,5.80
2018-06-24T08:13:38.141Z,4.90
2018-06-24T08:14:38.131Z,4.30
2018-06-24T08:15:38.079Z,4.50
2018-06-24T08:16:38.088Z,6.40
2018-06-24T08:17:38.064Z,5.80
2018-06-24T08:18:38.009Z,4.60
2018-06-24T08:19:37.997Z,3.70
2018-06-24T08:20:37.978Z,5.40
2018-06-24T08:21:37.917Z,5.60
2018-06-24T08:22:37.877Z,2.80
2018-06-24T08:23:37.868Z,4.20
2018-06-24T08:24:37.858Z,4.80
2018-06-24T08:25:37.831Z,3.80
2018-06-24T08:26:37.763Z,4.90
2018-06-24T08:27:37.751Z,4.00
2018-06-24T08:28:37.702Z,4.20
2018-06-24T08:29:37.797Z,4.50
2018-06-24T08:30:37.656Z,3.70
2018-06-24T08:31:37.708Z,3.80
2018-06-24T08:32:37.588Z,3.50
2018-06-24T08:33:37.584Z,3.80
2018-06-24T08:34:37.558Z,4.00
2018-06-24T08:35:37.533Z,4.00
2018-06-24T08:36:37.486Z,4.10
2018-06-24T08:37:37.461Z,5.10
2018-06-24T08:38:37.409Z,5.50
2018-06-24T08:39:37.384Z,4.50
2018-06-24T08:40:37.382Z,3.20
2018-06-24T08:41:37.321Z,5.40
2018-06-24T08:42:37.324Z,4.40
2018-06-24T08:43:38.253Z,4.00
2018-06-24T08:44:37.248Z,3.00
2018-06-24T08:45:37.233Z,4.10
2018-06-24T08:46:37.207Z,4.30
2018-06-24T08:47:37.183Z,6.60
2018-06-24T08:48:37.129Z,5.20
2018-06-24T08:49:37.213Z,5.10
2018-06-24T08:50:37.109Z,4.70
2018-06-24T08:51:37.102Z,3.30
2018-06-24T08:52:37.053Z,4.20
2018-06-24T08:53:37.035Z,4.00
2018-06-24T08:54:36.961Z,5.10
2018-06-24T08:55:36.932Z,3.50
2018-06-24T08:56:36.918Z,4.90
2018-06-24T08:57:36.890Z,4.50
2018-06-24T08:58:36.945Z,4.90
2018-06-24T08:59:36.860Z,6.30
2018-06-24T09:00:36.790Z,3.90
2018-06-24T09:01:36.768Z,5.40
2018-06-24T09:02:36.738Z,4.60
2018-06-24T09:03:36.705Z,5.60
2018-06-24T09:04:36.682Z,5.20
2018-06-24T09:05:36.643Z,4.50
2018-06-24T09:06:36.609Z,3.90
2018-06-24T09:07:36.586Z,3.30
2018-06-24T09:08:36.576Z,4.40
2018-06-24T09:09:36.551Z,4.00
2018-06-24T09:10:36.543Z,4.30
2018-06-24T09:11:36.449Z,3.90
2018-06-24T09:12:36.530Z,3.50
2018-06-24T09:13:36.468Z,4.80
2018-06-24T09:14:36.704Z,2.30
2018-06-24T09:15:36.370Z,3.20
2018-06-24T09:16:36.316Z,3.70
2018-06-24T09:17:36.309Z,4.40
2018-06-24T09:18:36.253Z,2.60
2018-06-24T09:19:37.610Z,2.90
2018-06-24T09:20:36.197Z,3.40
2018-06-24T09:21:36.278Z,3.60
2018-06-24T09:22:36.139Z,3.50
2018-06-24T09:23:36.484Z,3.70
2018-06-24T09:24:36.152Z,3.40
2018-06-24T09:25:36.027Z,5.80
2018-06-24T09:26:36.019Z,5.20
2018-06-24T09:27:35.996Z,3.80
2018-06-24T09:28:35.946Z,4.30
2018-06-24T09:29:35.908Z,2.90
2018-06-24T09:30:35.902Z,4.30
2018-06-24T09:31:35.865Z,3.70
2018-06-24T09:32:35.827Z,3.80
2018-06-24T09:33:35.828Z,3.60
2018-06-24T09:34:35.765Z,4.10
2018-06-24T09:35:35.760Z,4.30
2018-06-24T09:36:35.720Z,3.70
2018-06-24T09:37:35.681Z,3.90
2018-06-24T09:38:35.662Z,4.90
2018-06-24T09:39:35.619Z,3.80
2018-06-24T09:40:35.578Z,4.60
2018-06-24T09:41:35.587Z,4.40
2018-06-24T09:42:35.527Z,4.10
2018-06-24T09:43:35.525Z,2.70
2018-06-24T09:44:35.483Z,5.00
2018-06-24T09:45:35.425Z,5.40
2018-06-24T09:46:35.405Z,3.70
2018-06-24T09:47:35.374Z,3.90
2018-06-24T09:48:35.350Z,5.10
2018-06-24T09:49:35.496Z,3.30
2018-06-24T09:50:35.323Z,4.40
2018-06-24T09:51:35.280Z,4.90
2018-06-24T09:52:49.895Z,3.90
2018-06-24T09:53:35.199Z,5.50
2018-06-24T09:54:35.189Z,4.10
2018-06-24T09:55:35.154Z,5.80
2018-06-24T09:56:35.146Z,3.00
2018-06-24T09:57:35.122Z,3.80
2018-06-24T09:58:35.061Z,4.80
2018-06-24T09:59:35.021Z,4.20
2018-06-24T10:00:35.003Z,3.80
2018-06-24T10:01:34.958Z,3.60
2018-06-24T10:02:34.925Z,4.80
2018-06-24T10:03:34.920Z,2.80
2018-06-24T10:04:34.876Z,4.80
2018-06-24T10:05:34.852Z,3.60
2018-06-24T10:06:34.817Z,2.50
2018-06-24T10:07:34.793Z,4.20
2018-06-24T10:08:34.765Z,4.30
2018-06-24T10:09:34.738Z,5.10
2018-06-24T10:10:34.706Z,5.10
2018-06-24T10:11:34.663Z,6.30
2018-06-24T10:12:34.636Z,2.40
2018-06-24T10:13:34.606Z,4.80
2018-06-24T10:14:34.603Z,4.20
2018-06-24T10:15:34.562Z,4.60
2018-06-24T10:16:34.519Z,4.30
2018-06-24T10:17:34.525Z,5.20
2018-06-24T10:18:34.504Z,3.50
2018-06-24T10:19:34.420Z,3.60
2018-06-24T10:20:34.421Z,5.20
2018-06-24T10:21:34.392Z,3.70
2018-06-24T10:22:34.332Z,3.00
2018-06-24T10:23:34.333Z,4.60
2018-06-24T10:24:34.286Z,3.40
2018-06-24T10:25:34.255Z,4.00
2018-06-24T10:26:34.258Z,2.90
2018-06-24T10:27:34.240Z,3.60
2018-06-24T10:28:34.165Z,4.80
2018-06-24T10:29:34.181Z,3.60
2018-06-24T10:30:34.104Z,4.30
2018-06-24T10:31:34.058Z,5.00
2018-06-24T10:32:34.053Z,3.20
2018-06-24T10:33:34.014Z,4.20
2018-06-24T10:34:33.985Z,5.00
2018-06-24T10:35:33.955Z,3.60
2018-06-24T10:36:33.928Z,3.60
2018-06-24T10:37:33.892Z,4.10
2018-06-24T10:38:34.731Z,3.60
2018-06-24T10:39:33.830Z,4.10
2018-06-24T10:40:33.813Z,5.20
2018-06-24T10:41:33.811Z,3.80
2018-06-24T10:42:33.775Z,3.00
2018-06-24T10:43:33.721Z,2.80
2018-06-24T10:44:33.698Z,4.00
2018-06-24T10:45:33.645Z,3.20
2018-06-24T10:46:33.613Z,6.70
2018-06-24T10:47:33.638Z,3.00
2018-06-24T10:48:33.580Z,3.60
2018-06-24T10:49:33.596Z,2.60
2018-06-24T10:50:33.498Z,5.10
2018-06-24T10:51:33.499Z,3.50
2018-06-24T10:52:33.460Z,4.60
2018-06-24T10:53:33.419Z,3.70
2018-06-24T10:54:33.386Z,2.60
2018-06-24T10:55:33.355Z,4.50
2018-06-24T10:56:33.325Z,3.70
2018-06-24T10:57:33.330Z,3.60
2018-06-24T10:58:33.280Z,4.10
2018-06-24T10:59:33.231Z,4.40
2018-06-24T11:00:33.221Z,4.50
2018-06-24T11:01:33.177Z,4.20
2018-06-24T11:02:33.189Z,3.10
2018-06-24T11:03:33.133Z,4.20
2018-06-24T11:04:33.110Z,3.00
2018-06-24T11:05:33.076Z,4.10
2018-06-24T11:06:33.070Z,3.70
2018-06-24T11:07:33.032Z,3.70
2018-06-24T11:08:32.988Z,4.90
2018-06-24T11:09:32.962Z,3.10
2018-06-24T11:10:32.915Z,2.50
2018-06-24T11:11:32.897Z,4.00
2018-06-24T11:12:32.872Z,5.10
2018-06-24T11:13:32.856Z,4.10
2018-06-24T11:14:32.813Z,5.70
2018-06-24T11:15:32.780Z,4.70
2018-06-24T11:16:32.794Z,6.60
2018-06-24T11:17:32.750Z,3.70
2018-06-24T11:18:32.686Z,3.00
2018-06-24T11:19:32.679Z,3.90
2018-06-24T11:20:32.666Z,6.10
2018-06-24T11:21:32.615Z,4.80
2018-06-24T11:22:32.596Z,5.40
2018-06-24T11:23:32.589Z,3.20
2018-06-24T11:24:32.524Z,4.40
2018-06-24T11:25:32.536Z,3.70
2018-06-24T11:26:32.471Z,4.00
2018-06-24T11:27:32.496Z,6.20
2018-06-24T11:28:32.427Z,3.10
2018-06-24T11:29:32.385Z,3.60
2018-06-24T11:30:32.371Z,4.10
2018-06-24T11:31:32.330Z,3.00
2018-06-24T11:32:32.329Z,3.20
2018-06-24T11:33:32.271Z,4.70
2018-06-24T11:34:32.257Z,3.60
2018-06-24T11:35:32.209Z,4.50
2018-06-24T11:36:32.198Z,2.60
2018-06-24T11:37:32.219Z,4.00
2018-06-24T11:38:32.148Z,4.10
2018-06-24T11:39:32.100Z,5.00
2018-06-24T11:40:32.086Z,4.40
2018-06-24T11:41:32.036Z,4.20
2018-06-24T11:42:32.013Z,4.00
2018-06-24T11:43:31.996Z,2.60
2018-06-24T11:44:31.959Z,3.60
2018-06-24T11:45:31.914Z,3.50
2018-06-24T11:46:31.922Z,3.30
2018-06-24T11:47:31.880Z,3.40
2018-06-24T11:48:31.864Z,3.60
2018-06-24T11:49:31.812Z,3.80
2018-06-24T11:50:31.780Z,4.80
2018-06-24T11:51:31.789Z,3.50
2018-06-24T11:52:31.752Z,4.80
2018-06-24T11:53:31.697Z,4.10
2018-06-24T11:54:31.680Z,4.00
2018-06-24T11:55:31.687Z,2.80
2018-06-24T11:56:31.599Z,4.50
2018-06-24T11:57:31.687Z,3.20
2018-06-24T11:58:31.545Z,5.00
2018-06-24T11:59:31.572Z,3.60
2018-06-24T12:00:31.485Z,4.30
2018-06-24T12:01:31.465Z,3.30
2018-06-24T12:02:31.489Z,3.30
2018-06-24T12:03:31.402Z,6.90
2018-06-24T12:04:31.370Z,5.30
2018-06-24T12:05:31.345Z,4.40
2018-06-24T12:06:31.327Z,2.60
2018-06-24T12:07:31.291Z,4.10
2018-06-24T12:08:31.259Z,4.50
2018-06-24T12:09:31.249Z,4.30
2018-06-24T12:10:31.207Z,3.20
2018-06-24T12:11:31.172Z,5.20
2018-06-24T12:12:31.220Z,2.40
2018-06-24T12:13:31.775Z,3.40
2018-06-24T12:14:31.100Z,4.20
2018-06-24T12:15:31.082Z,3.70
2018-06-24T12:16:31.034Z,4.70
2018-06-24T12:17:31.021Z,3.60
2018-06-24T12:18:30.974Z,4.00
2018-06-24T12:19:31.008Z,2.90
2018-06-24T12:20:30.920Z,5.00
2018-06-24T12:21:30.916Z,2.80
2018-06-24T12:22:30.898Z,3.30
2018-06-24T12:23:30.844Z,4.20
2018-06-24T12:24:30.820Z,2.50
2018-06-24T12:25:30.778Z,3.00
2018-06-24T12:26:30.754Z,4.20
2018-06-24T12:27:30.716Z,4.10
2018-06-24T12:28:30.704Z,2.80
2018-06-24T12:29:30.753Z,4.80
2018-06-24T12:30:30.641Z,5.10
2018-06-24T12:31:30.613Z,4.50
2018-06-24T12:32:30.586Z,3.70
2018-06-24T12:33:30.574Z,3.10
2018-06-24T12:34:30.525Z,3.80
2018-06-24T12:35:30.502Z,4.10
2018-06-24T12:36:30.466Z,3.10
2018-06-24T12:37:30.459Z,3.00
2018-06-24T12:38:30.456Z,3.90
2018-06-24T12:39:30.380Z,3.00
2018-06-24T12:40:30.341Z,3.70
2018-06-24T12:41:30.370Z,3.60
2018-06-24T12:42:30.315Z,3.70
2018-06-24T12:43:30.340Z,3.30
2018-06-24T12:44:30.253Z,3.70
2018-06-24T12:45:30.233Z,4.40
2018-06-24T12:46:30.174Z,3.20
2018-06-24T12:47:30.189Z,4.40
2018-06-24T12:48:30.109Z,3.30
2018-06-24T12:49:30.190Z,3.50
2018-06-24T12:50:30.065Z,4.00
2018-06-24T12:51:30.028Z,4.10
2018-06-24T12:52:30.011Z,3.00
2018-06-24T12:53:29.979Z,4.60
2018-06-24T12:54:29.980Z,3.20
2018-06-24T12:55:29.922Z,2.80
2018-06-24T12:56:29.887Z,3.50
2018-06-24T12:57:29.860Z,5.30
2018-06-24T12:58:29.854Z,4.20
2018-06-24T12:59:29.955Z,3.70
2018-06-24T13:00:30.294Z,2.80
2018-06-24T13:01:29.740Z,3.70
2018-06-24T13:02:29.713Z,2.50
2018-06-24T13:03:29.717Z,3.20
2018-06-24T13:04:29.674Z,2.90
2018-06-24T13:05:29.658Z,3.20
2018-06-24T13:06:29.589Z,2.80
2018-06-24T13:07:29.571Z,2.50
2018-06-24T13:08:29.535Z,3.10
2018-06-24T13:09:29.778Z,5.80
2018-06-24T13:10:29.480Z,4.90
2018-06-24T13:11:29.451Z,3.00
2018-06-24T13:12:29.423Z,2.90